Aérodrome :
LOGIN :

S'inscrire | Disclaimer

   EN    FR    IT 

 










Légende :    VFR   VFR Marginal   IFR   IFR Intensif   IFR Très Intensif
Visi : 
Plafond : 
>= 8 km
>= 3000ft
5 à 8 km
1000 à 3000 ft
1500m à 5 km
500 à 1000 ft
800 à 1500m
200 à 500 ft
< 800m
< 200 ft
Symboles :   Orages  Brouillard  Fortes neiges  Fortes précipitations  Vent > 20 kt
SIGMETs :   Divers  Orages  Givrage  Turbulence  Onde Orograph.  Cendres Volcan.







- Altitude de l'aérodrome : 33 ft
- Code IATA : MHZ


EGUN - RAF Mildenhall

DERNIER METAR :
  • 281138Z AUTO 34005KT 9999 OVC050 10/07 A3001 RMK AO2

METARs EXPIRÉS :
  • 281058Z AUTO 31009KT 9999 FEW031 BKN045 11/06 A3001 RMK AO2 SLP166 T01100064
  • 281048Z AUTO 01006KT 9999 SCT049 SCT180 11/06 A3001 RMK AO2
  • 281033Z AUTO 33007G15KT 9999 BKN049 10/07 A3001 RMK AO2
  • 281018Z AUTO 33009KT 9999 FEW030 BKN050 11/09 A3001 RMK AO2
  • 281003Z AUTO 35007KT 9999 SCT029 BKN047 10/08 A3001 RMK AO2
  • 280913Z AUTO 33006KT 9999 FEW023 SCT030 10/10 A3001 RMK AO2
  • 280858Z AUTO 34008KT 9999 BKN023 BKN033 10/10 A3001 RMK AO2 SLP166 T00950095 51004

TAF TAF EGUN
Valide du 28 à 04h jusqu'au 29 à 10h UTC


280405Z 2804/2910 30006KT 9999 SCT050 QNH2997INS
BECMG 2812/2813 05006KT 9999 SCT030 QNH3001INS TX12/2815Z TN01/2805Z
Pas de NOTAMs connus pour ce terrain.



MET'MAP, la Météo Aéronautique d'un coup d'oeil ! - Copyright ORBIFLY Décembre 2007 - Disclaimer

ORBIFLY MET'MAP TEAM :

Programmation & Développement : Alexandra Zaïnal
Conception & Développement : Baudouin d'Aumeries
Co-Programmation & Développement : Marc-Olivier Méhu
Soutien technique & logistique : Manuel Goepfert

Contact : metmap@orbifly.com




SOURCES & CREDITS :

   NOAA